sensor_id;sensor_type;location;lat;lon;timestamp;pressure;altitude;pressure_sealevel;temperature;humidity
9969;BME280;5025;48.890;9.278;2023-05-14T00:01:00;98791.94;;;13.01;83.31
9969;BME280;5025;48.890;9.278;2023-05-14T00:03:25;98800.06;;;13.01;83.24
9969;BME280;5025;48.890;9.278;2023-05-14T00:05:51;98779.69;;;12.99;83.54
9969;BME280;5025;48.890;9.278;2023-05-14T00:08:16;98781.00;;;12.96;83.54
9969;BME280;5025;48.890;9.278;2023-05-14T00:10:41;98781.25;;;12.95;83.56
9969;BME280;5025;48.890;9.278;2023-05-14T00:13:06;98783.94;;;12.95;83.49
9969;BME280;5025;48.890;9.278;2023-05-14T00:15:32;98784.19;;;12.93;83.68
9969;BME280;5025;48.890;9.278;2023-05-14T00:17:57;98771.13;;;12.90;83.75
9969;BME280;5025;48.890;9.278;2023-05-14T00:20:22;98768.41;;;12.90;83.89
9969;BME280;5025;48.890;9.278;2023-05-14T00:22:48;98764.56;;;12.86;83.95
9969;BME280;5025;48.890;9.278;2023-05-14T00:25:13;98755.84;;;12.84;83.90
9969;BME280;5025;48.890;9.278;2023-05-14T00:27:38;98763.16;;;12.83;83.87
9969;BME280;5025;48.890;9.278;2023-05-14T00:30:04;98760.69;;;12.82;83.96
9969;BME280;5025;48.890;9.278;2023-05-14T00:32:31;98756.56;;;12.79;84.02
9969;BME280;5025;48.890;9.278;2023-05-14T00:34:56;98757.91;;;12.77;84.26
9969;BME280;5025;48.890;9.278;2023-05-14T00:37:21;98764.63;;;12.74;84.03
9969;BME280;5025;48.890;9.278;2023-05-14T00:39:47;98763.22;;;12.71;84.17
9969;BME280;5025;48.890;9.278;2023-05-14T00:42:12;98761.00;;;12.68;84.24
9969;BME280;5025;48.890;9.278;2023-05-14T00:44:37;98763.38;;;12.65;84.22
9969;BME280;5025;48.890;9.278;2023-05-14T00:47:03;98768.47;;;12.61;84.37
9969;BME280;5025;48.890;9.278;2023-05-14T00:49:28;98755.97;;;12.60;84.34
9969;BME280;5025;48.890;9.278;2023-05-14T00:51:54;98758.09;;;12.58;84.13
9969;BME280;5025;48.890;9.278;2023-05-14T00:54:20;98748.56;;;12.55;84.32
9969;BME280;5025;48.890;9.278;2023-05-14T00:56:45;98756.13;;;12.53;84.24
9969;BME280;5025;48.890;9.278;2023-05-14T00:59:11;98744.13;;;12.49;84.26
9969;BME280;5025;48.890;9.278;2023-05-14T01:01:37;98744.38;;;12.48;84.34
9969;BME280;5025;48.890;9.278;2023-05-14T01:04:03;98742.38;;;12.43;84.13
9969;BME280;5025;48.890;9.278;2023-05-14T01:09:41;98734.97;;;12.38;84.38
9969;BME280;5025;48.890;9.278;2023-05-14T01:14:51;98740.31;;;12.33;84.31
9969;BME280;5025;48.890;9.278;2023-05-14T01:17:19;98736.44;;;12.29;84.18
9969;BME280;5025;48.890;9.278;2023-05-14T01:19:47;98740.44;;;12.27;84.16
9969;BME280;5025;48.890;9.278;2023-05-14T01:22:12;98740.91;;;12.24;84.37
9969;BME280;5025;48.890;9.278;2023-05-14T01:24:38;98746.31;;;12.24;84.32
9969;BME280;5025;48.890;9.278;2023-05-14T01:29:48;98742.94;;;12.16;84.34
9969;BME280;5025;48.890;9.278;2023-05-14T01:32:16;98740.97;;;12.12;84.43
9969;BME280;5025;48.890;9.278;2023-05-14T01:34:43;98737.09;;;12.08;84.45
9969;BME280;5025;48.890;9.278;2023-05-14T01:37:11;98736.75;;;12.04;84.36
9969;BME280;5025;48.890;9.278;2023-05-14T01:39:37;98737.22;;;12.01;84.54
9969;BME280;5025;48.890;9.278;2023-05-14T01:42:04;98730.16;;;12.00;84.46
9969;BME280;5025;48.890;9.278;2023-05-14T01:44:31;98729.81;;;11.96;84.56
9969;BME280;5025;48.890;9.278;2023-05-14T01:46:57;98732.78;;;11.95;84.34
9969;BME280;5025;48.890;9.278;2023-05-14T01:49:22;98727.59;;;11.93;84.50
9969;BME280;5025;48.890;9.278;2023-05-14T01:51:48;98734.28;;;11.91;84.48
9969;BME280;5025;48.890;9.278;2023-05-14T01:54:13;98735.56;;;11.88;84.35
9969;BME280;5025;48.890;9.278;2023-05-14T01:56:38;98734.97;;;11.86;84.40
9969;BME280;5025;48.890;9.278;2023-05-14T01:59:03;98739.81;;;11.84;84.45
9969;BME280;5025;48.890;9.278;2023-05-14T02:01:29;98735.69;;;11.81;84.47
9969;BME280;5025;48.890;9.278;2023-05-14T02:03:54;98739.97;;;11.77;84.39
9969;BME280;5025;48.890;9.278;2023-05-14T02:06:19;98738.53;;;11.75;84.59
9969;BME280;5025;48.890;9.278;2023-05-14T02:08:45;98731.13;;;11.70;84.49
9969;BME280;5025;48.890;9.278;2023-05-14T02:11:10;98731.28;;;11.63;84.71
9969;BME280;5025;48.890;9.278;2023-05-14T02:13:35;98731.75;;;11.60;84.72
9969;BME280;5025;48.890;9.278;2023-05-14T02:16:00;98728.91;;;11.55;84.23
9969;BME280;5025;48.890;9.278;2023-05-14T02:18:26;98729.03;;;11.48;84.38
9969;BME280;5025;48.890;9.278;2023-05-14T02:20:51;98728.69;;;11.45;84.30
9969;BME280;5025;48.890;9.278;2023-05-14T02:23:16;98727.28;;;11.42;84.39
9969;BME280;5025;48.890;9.278;2023-05-14T02:25:43;98731.88;;;11.42;84.41
9969;BME280;5025;48.890;9.278;2023-05-14T02:28:08;98737.75;;;11.39;84.35
9969;BME280;5025;48.890;9.278;2023-05-14T02:30:33;98739.50;;;11.33;84.18
9969;BME280;5025;48.890;9.278;2023-05-14T02:32:58;98734.34;;;11.32;84.19
9969;BME280;5025;48.890;9.278;2023-05-14T02:35:24;98736.69;;;11.28;84.24
9969;BME280;5025;48.890;9.278;2023-05-14T02:37:49;98734.00;;;11.28;84.28
9969;BME280;5025;48.890;9.278;2023-05-14T02:40:15;98737.50;;;11.28;84.42
9969;BME280;5025;48.890;9.278;2023-05-14T02:42:40;98734.81;;;11.28;84.33
9969;BME280;5025;48.890;9.278;2023-05-14T02:45:06;98738.31;;;11.29;84.38
9969;BME280;5025;48.890;9.278;2023-05-14T02:47:31;98732.09;;;11.28;84.34
9969;BME280;5025;48.890;9.278;2023-05-14T02:49:56;98734.56;;;11.30;84.46
9969;BME280;5025;48.890;9.278;2023-05-14T02:52:21;98737.28;;;11.30;84.16
9969;BME280;5025;48.890;9.278;2023-05-14T02:54:47;98739.16;;;11.29;84.39
9969;BME280;5025;48.890;9.278;2023-05-14T02:57:12;98741.88;;;11.29;84.38
9969;BME280;5025;48.890;9.278;2023-05-14T02:59:37;98740.22;;;11.28;84.25
9969;BME280;5025;48.890;9.278;2023-05-14T03:02:03;98741.25;;;11.27;84.19
9969;BME280;5025;48.890;9.278;2023-05-14T03:04:28;98754.78;;;11.27;84.25
9969;BME280;5025;48.890;9.278;2023-05-14T03:06:53;98750.69;;;11.25;84.27
9969;BME280;5025;48.890;9.278;2023-05-14T03:09:18;98747.75;;;11.26;84.17
9969;BME280;5025;48.890;9.278;2023-05-14T03:11:44;98748.09;;;11.30;84.18
9969;BME280;5025;48.890;9.278;2023-05-14T03:14:09;98746.81;;;11.33;84.29
9969;BME280;5025;48.890;9.278;2023-05-14T03:16:35;98750.09;;;11.35;84.05
9969;BME280;5025;48.890;9.278;2023-05-14T03:19:00;98748.44;;;11.34;84.55
9969;BME280;5025;48.890;9.278;2023-05-14T03:21:25;98745.50;;;11.35;84.17
9969;BME280;5025;48.890;9.278;2023-05-14T03:23:51;98741.97;;;11.35;84.08
9969;BME280;5025;48.890;9.278;2023-05-14T03:26:17;98736.00;;;11.33;84.20
9969;BME280;5025;48.890;9.278;2023-05-14T03:28:43;98734.09;;;11.33;84.14
9969;BME280;5025;48.890;9.278;2023-05-14T03:31:08;98730.59;;;11.33;84.30
9969;BME280;5025;48.890;9.278;2023-05-14T03:33:33;98732.22;;;11.34;84.18
9969;BME280;5025;48.890;9.278;2023-05-14T03:35:58;98733.06;;;11.34;84.21
9969;BME280;5025;48.890;9.278;2023-05-14T03:38:24;98736.56;;;11.35;84.27
9969;BME280;5025;48.890;9.278;2023-05-14T03:40:49;98734.69;;;11.35;84.48
9969;BME280;5025;48.890;9.278;2023-05-14T03:43:14;98742.56;;;11.37;84.30
9969;BME280;5025;48.890;9.278;2023-05-14T03:45:40;98745.03;;;11.38;84.56
9969;BME280;5025;48.890;9.278;2023-05-14T03:48:05;98739.38;;;11.40;84.25
9969;BME280;5025;48.890;9.278;2023-05-14T03:50:31;98730.22;;;11.41;84.25
9969;BME280;5025;48.890;9.278;2023-05-14T03:52:56;98728.78;;;11.38;84.24
9969;BME280;5025;48.890;9.278;2023-05-14T03:55:21;98737.03;;;11.43;84.75
9969;BME280;5025;48.890;9.278;2023-05-14T03:57:47;98732.94;;;11.41;84.24
9969;BME280;5025;48.890;9.278;2023-05-14T04:00:13;98736.19;;;11.43;84.29
9969;BME280;5025;48.890;9.278;2023-05-14T04:02:39;98733.25;;;11.44;84.40
9969;BME280;5025;48.890;9.278;2023-05-14T04:05:04;98733.50;;;11.43;84.47
9969;BME280;5025;48.890;9.278;2023-05-14T04:07:29;98727.50;;;11.41;84.57
9969;BME280;5025;48.890;9.278;2023-05-14T04:09:55;98729.16;;;11.42;84.59
9969;BME280;5025;48.890;9.278;2023-05-14T04:12:20;98727.50;;;11.41;84.61
9969;BME280;5025;48.890;9.278;2023-05-14T04:14:46;98738.34;;;11.41;84.54
9969;BME280;5025;48.890;9.278;2023-05-14T04:17:11;98731.88;;;11.42;84.49
9969;BME280;5025;48.890;9.278;2023-05-14T04:19:36;98727.50;;;11.41;84.42
9969;BME280;5025;48.890;9.278;2023-05-14T04:22:02;98728.31;;;11.41;84.49
9969;BME280;5025;48.890;9.278;2023-05-14T04:24:27;98732.94;;;11.41;84.72
9969;BME280;5025;48.890;9.278;2023-05-14T04:26:52;98731.88;;;11.42;84.46
9969;BME280;5025;48.890;9.278;2023-05-14T04:29:17;98728.94;;;11.43;84.50
9969;BME280;5025;48.890;9.278;2023-05-14T04:31:43;98733.50;;;11.43;84.57
9969;BME280;5025;48.890;9.278;2023-05-14T04:34:08;98730.78;;;11.43;84.91
9969;BME280;5025;48.890;9.278;2023-05-14T04:36:33;98734.91;;;11.45;84.82
9969;BME280;5025;48.890;9.278;2023-05-14T04:38:59;98741.13;;;11.46;84.74
9969;BME280;5025;48.890;9.278;2023-05-14T04:41:24;98726.00;;;11.45;84.72
9969;BME280;5025;48.890;9.278;2023-05-14T04:43:50;98729.28;;;11.47;84.62
9969;BME280;5025;48.890;9.278;2023-05-14T04:46:15;98730.94;;;11.48;84.74
9969;BME280;5025;48.890;9.278;2023-05-14T04:48:40;98729.03;;;11.48;84.93
9969;BME280;5025;48.890;9.278;2023-05-14T04:51:06;98729.38;;;11.52;84.93
9969;BME280;5025;48.890;9.278;2023-05-14T04:53:31;98729.16;;;11.54;84.85
9969;BME280;5025;48.890;9.278;2023-05-14T04:55:56;98731.63;;;11.55;84.75
9969;BME280;5025;48.890;9.278;2023-05-14T04:58:21;98723.97;;;11.52;84.87
9969;BME280;5025;48.890;9.278;2023-05-14T05:00:48;98728.09;;;11.55;84.96
9969;BME280;5025;48.890;9.278;2023-05-14T05:03:13;98734.31;;;11.55;84.78
9969;BME280;5025;48.890;9.278;2023-05-14T05:05:38;98732.47;;;11.56;84.88
9969;BME280;5025;48.890;9.278;2023-05-14T05:08:04;98733.28;;;11.56;85.00
9969;BME280;5025;48.890;9.278;2023-05-14T05:10:29;98730.56;;;11.56;84.95
9969;BME280;5025;48.890;9.278;2023-05-14T05:12:54;98730.56;;;11.56;84.87
9969;BME280;5025;48.890;9.278;2023-05-14T05:15:19;98734.09;;;11.57;84.96
9969;BME280;5025;48.890;9.278;2023-05-14T05:17:45;98735.16;;;11.56;84.87
9969;BME280;5025;48.890;9.278;2023-05-14T05:20:10;98733.84;;;11.58;85.12
9969;BME280;5025;48.890;9.278;2023-05-14T05:22:36;98727.97;;;11.61;85.08
9969;BME280;5025;48.890;9.278;2023-05-14T05:25:01;98729.63;;;11.62;85.09
9969;BME280;5025;48.890;9.278;2023-05-14T05:27:30;98739.38;;;11.63;85.32
9969;BME280;5025;48.890;9.278;2023-05-14T05:29:55;98734.56;;;11.65;85.14
9969;BME280;5025;48.890;9.278;2023-05-14T05:32:21;98727.00;;;11.68;84.91
9969;BME280;5025;48.890;9.278;2023-05-14T05:34:47;98732.44;;;11.68;85.11
9969;BME280;5025;48.890;9.278;2023-05-14T05:37:12;98720.22;;;11.65;85.10
9969;BME280;5025;48.890;9.278;2023-05-14T05:39:38;98728.09;;;11.66;85.25
9969;BME280;5025;48.890;9.278;2023-05-14T05:42:04;98731.38;;;11.69;85.23
9969;BME280;5025;48.890;9.278;2023-05-14T05:44:29;98728.44;;;11.70;85.41
9969;BME280;5025;48.890;9.278;2023-05-14T05:46:55;98730.66;;;11.73;85.22
9969;BME280;5025;48.890;9.278;2023-05-14T05:49:21;98728.53;;;11.75;85.41
9969;BME280;5025;48.890;9.278;2023-05-14T05:51:46;98731.00;;;11.77;85.47
9969;BME280;5025;48.890;9.278;2023-05-14T05:54:11;98724.53;;;11.78;85.16
9969;BME280;5025;48.890;9.278;2023-05-14T05:56:37;98731.59;;;11.79;85.49
9969;BME280;5025;48.890;9.278;2023-05-14T05:59:02;98730.19;;;11.76;85.48
9969;BME280;5025;48.890;9.278;2023-05-14T06:01:28;98721.03;;;11.77;85.68
9969;BME280;5025;48.890;9.278;2023-05-14T06:03:53;98726.19;;;11.79;85.71
9969;BME280;5025;48.890;9.278;2023-05-14T06:06:18;98728.44;;;11.82;85.78
9969;BME280;5025;48.890;9.278;2023-05-14T06:08:43;98726.28;;;11.84;85.56
9969;BME280;5025;48.890;9.278;2023-05-14T06:11:09;98728.75;;;11.86;85.71
9969;BME280;5025;48.890;9.278;2023-05-14T06:13:34;98731.22;;;11.87;85.68
9969;BME280;5025;48.890;9.278;2023-05-14T06:15:59;98726.63;;;11.88;85.73
9969;BME280;5025;48.890;9.278;2023-05-14T06:18:24;98733.47;;;11.90;85.83
9969;BME280;5025;48.890;9.278;2023-05-14T06:20:50;98741.94;;;11.94;85.90
9969;BME280;5025;48.890;9.278;2023-05-14T06:23:15;98733.69;;;12.00;85.87
9969;BME280;5025;48.890;9.278;2023-05-14T06:25:40;98734.28;;;12.02;85.68
9969;BME280;5025;48.890;9.278;2023-05-14T06:28:06;98733.31;;;12.09;85.76
9969;BME280;5025;48.890;9.278;2023-05-14T06:30:31;98733.66;;;12.12;85.54
9969;BME280;5025;48.890;9.278;2023-05-14T06:32:56;98733.66;;;12.12;85.60
9969;BME280;5025;48.890;9.278;2023-05-14T06:35:22;98726.59;;;12.11;85.69
9969;BME280;5025;48.890;9.278;2023-05-14T06:37:47;98738.41;;;11.93;85.30
9969;BME280;5025;48.890;9.278;2023-05-14T06:40:13;98728.78;;;11.74;85.98
9969;BME280;5025;48.890;9.278;2023-05-14T06:42:40;98731.00;;;11.77;86.28
9969;BME280;5025;48.890;9.278;2023-05-14T06:45:05;98731.59;;;11.79;86.07
9969;BME280;5025;48.890;9.278;2023-05-14T06:47:31;98730.06;;;11.83;86.37
9969;BME280;5025;48.890;9.278;2023-05-14T06:49:56;98731.34;;;11.92;85.59
9969;BME280;5025;48.890;9.278;2023-05-14T06:52:23;98729.34;;;11.99;85.99
9969;BME280;5025;48.890;9.278;2023-05-14T06:54:48;98730.63;;;12.09;85.49
9969;BME280;5025;48.890;9.278;2023-05-14T06:57:13;98720.44;;;12.16;85.61
9969;BME280;5025;48.890;9.278;2023-05-14T06:59:38;98725.50;;;12.24;85.51
9969;BME280;5025;48.890;9.278;2023-05-14T07:02:04;98725.34;;;12.31;85.33
9969;BME280;5025;48.890;9.278;2023-05-14T07:04:29;98726.03;;;12.38;85.12
9969;BME280;5025;48.890;9.278;2023-05-14T07:06:54;98731.78;;;12.42;84.90
9969;BME280;5025;48.890;9.278;2023-05-14T07:09:19;98728.84;;;12.43;85.38
9969;BME280;5025;48.890;9.278;2023-05-14T07:11:46;98734.34;;;12.48;85.08
9969;BME280;5025;48.890;9.278;2023-05-14T07:14:11;98737.53;;;12.45;85.06
9969;BME280;5025;48.890;9.278;2023-05-14T07:16:36;98739.34;;;12.40;85.48
9969;BME280;5025;48.890;9.278;2023-05-14T07:19:02;98729.09;;;12.42;85.47
9969;BME280;5025;48.890;9.278;2023-05-14T07:21:27;98728.13;;;12.48;85.37
9969;BME280;5025;48.890;9.278;2023-05-14T07:23:53;98722.78;;;12.53;85.24
9969;BME280;5025;48.890;9.278;2023-05-14T07:26:18;98724.28;;;12.61;85.04
9969;BME280;5025;48.890;9.278;2023-05-14T07:28:43;98717.06;;;12.66;85.05
9969;BME280;5025;48.890;9.278;2023-05-14T07:31:08;98716.09;;;12.72;84.63
9969;BME280;5025;48.890;9.278;2023-05-14T07:33:34;98712.66;;;12.77;84.52
9969;BME280;5025;48.890;9.278;2023-05-14T07:36:00;98715.44;;;12.82;84.51
9969;BME280;5025;48.890;9.278;2023-05-14T07:38:25;98714.69;;;12.87;84.24
9969;BME280;5025;48.890;9.278;2023-05-14T07:40:51;98702.81;;;12.88;84.39
9969;BME280;5025;48.890;9.278;2023-05-14T07:43:16;98705.84;;;12.91;83.94
9969;BME280;5025;48.890;9.278;2023-05-14T07:45:41;98707.81;;;12.96;83.85
9969;BME280;5025;48.890;9.278;2023-05-14T07:48:07;98703.22;;;12.97;83.83
9969;BME280;5025;48.890;9.278;2023-05-14T07:50:32;98712.75;;;12.99;83.77
9969;BME280;5025;48.890;9.278;2023-05-14T07:52:57;98703.31;;;13.02;83.79
9969;BME280;5025;48.890;9.278;2023-05-14T07:55:23;98705.09;;;12.96;83.58
9969;BME280;5025;48.890;9.278;2023-05-14T07:57:48;98710.69;;;12.89;83.20
9969;BME280;5025;48.890;9.278;2023-05-14T08:00:13;98705.03;;;12.91;82.94
9969;BME280;5025;48.890;9.278;2023-05-14T08:02:40;98708.16;;;13.00;82.75
9969;BME280;5025;48.890;9.278;2023-05-14T08:05:06;98707.72;;;13.08;82.66
9969;BME280;5025;48.890;9.278;2023-05-14T08:07:32;98709.13;;;13.11;82.38
9969;BME280;5025;48.890;9.278;2023-05-14T08:09:57;98707.06;;;13.18;82.34
9969;BME280;5025;48.890;9.278;2023-05-14T08:12:23;98710.50;;;13.30;82.17
9969;BME280;5025;48.890;9.278;2023-05-14T08:14:48;98699.59;;;13.42;81.97
9969;BME280;5025;48.890;9.278;2023-05-14T08:17:13;98702.19;;;13.54;81.84
9969;BME280;5025;48.890;9.278;2023-05-14T08:19:38;98697.22;;;13.68;81.46
9969;BME280;5025;48.890;9.278;2023-05-14T08:22:04;98694.84;;;13.71;81.18
9969;BME280;5025;48.890;9.278;2023-05-14T08:24:29;98691.69;;;13.79;80.82
9969;BME280;5025;48.890;9.278;2023-05-14T08:26:54;98690.66;;;13.86;80.65
9969;BME280;5025;48.890;9.278;2023-05-14T08:29:20;98685.03;;;13.92;80.53
9969;BME280;5025;48.890;9.278;2023-05-14T08:31:45;98691.41;;;14.03;80.49
9969;BME280;5025;48.890;9.278;2023-05-14T08:34:11;98689.09;;;14.12;80.32
9969;BME280;5025;48.890;9.278;2023-05-14T08:36:39;98684.84;;;14.21;80.05
9969;BME280;5025;48.890;9.278;2023-05-14T08:39:05;98689.25;;;14.27;80.03
9969;BME280;5025;48.890;9.278;2023-05-14T08:41:31;98686.31;;;14.34;79.77
9969;BME280;5025;48.890;9.278;2023-05-14T08:44:11;98677.72;;;14.42;79.57
9969;BME280;5025;48.890;9.278;2023-05-14T08:46:37;98677.78;;;14.47;79.26
9969;BME280;5025;48.890;9.278;2023-05-14T08:49:25;98690.88;;;14.56;79.15
9969;BME280;5025;48.890;9.278;2023-05-14T08:51:53;98683.94;;;14.65;78.94
9969;BME280;5025;48.890;9.278;2023-05-14T08:54:20;98679.69;;;14.74;78.82
9969;BME280;5025;48.890;9.278;2023-05-14T08:56:48;98679.78;;;14.84;78.44
9969;BME280;5025;48.890;9.278;2023-05-14T08:59:15;98674.91;;;14.92;78.13
9969;BME280;5025;48.890;9.278;2023-05-14T09:01:45;98682.63;;;15.00;77.87
9969;BME280;5025;48.890;9.278;2023-05-14T09:04:12;98675.28;;;15.05;77.62
9969;BME280;5025;48.890;9.278;2023-05-14T09:06:40;98671.28;;;15.13;77.49
9969;BME280;5025;48.890;9.278;2023-05-14T09:09:07;98668.59;;;15.18;77.25
9969;BME280;5025;48.890;9.278;2023-05-14T09:11:39;98669.19;;;15.26;77.01
9969;BME280;5025;48.890;9.278;2023-05-14T09:14:05;98667.59;;;15.30;76.94
9969;BME280;5025;48.890;9.278;2023-05-14T09:16:30;98666.53;;;15.36;77.01
9969;BME280;5025;48.890;9.278;2023-05-14T09:18:56;98663.28;;;15.39;76.66
9969;BME280;5025;48.890;9.278;2023-05-14T09:21:22;98660.03;;;15.42;76.47
9969;BME280;5025;48.890;9.278;2023-05-14T09:23:52;98658.72;;;15.50;76.03
9969;BME280;5025;48.890;9.278;2023-05-14T09:26:17;98653.88;;;15.57;75.71
9969;BME280;5025;48.890;9.278;2023-05-14T09:28:43;98656.59;;;15.62;75.76
9969;BME280;5025;48.890;9.278;2023-05-14T09:31:08;98656.00;;;15.55;74.08
9969;BME280;5025;48.890;9.278;2023-05-14T09:33:34;98651.34;;;15.45;72.22
9969;BME280;5025;48.890;9.278;2023-05-14T09:36:00;98651.84;;;15.37;71.16
9969;BME280;5025;48.890;9.278;2023-05-14T09:38:29;98644.56;;;15.48;71.30
9969;BME280;5025;48.890;9.278;2023-05-14T09:40:55;98641.06;;;15.57;71.16
9969;BME280;5025;48.890;9.278;2023-05-14T09:43:21;98644.66;;;15.68;70.89
9969;BME280;5025;48.890;9.278;2023-05-14T09:45:46;98644.66;;;15.68;70.61
9969;BME280;5025;48.890;9.278;2023-05-14T09:48:12;98638.41;;;15.73;70.59
9969;BME280;5025;48.890;9.278;2023-05-14T09:50:44;98646.03;;;15.76;70.23
9969;BME280;5025;48.890;9.278;2023-05-14T09:53:10;98642.00;;;15.79;70.18
9969;BME280;5025;48.890;9.278;2023-05-14T09:55:36;98636.84;;;15.87;70.06
9969;BME280;5025;48.890;9.278;2023-05-14T09:58:03;98642.88;;;15.94;69.86
9969;BME280;5025;48.890;9.278;2023-05-14T10:00:30;98639.34;;;15.99;69.58
9969;BME280;5025;48.890;9.278;2023-05-14T10:02:56;98637.97;;;15.97;69.56
9969;BME280;5025;48.890;9.278;2023-05-14T10:05:22;98634.72;;;16.00;69.52
9969;BME280;5025;48.890;9.278;2023-05-14T10:07:50;98636.34;;;16.01;69.47
9969;BME280;5025;48.890;9.278;2023-05-14T10:10:20;98631.44;;;16.03;69.40
9969;BME280;5025;48.890;9.278;2023-05-14T10:12:56;98626.00;;;16.08;69.60
9969;BME280;5025;48.890;9.278;2023-05-14T10:15:46;98630.38;;;16.09;69.60
9969;BME280;5025;48.890;9.278;2023-05-14T10:18:16;98634.22;;;16.13;69.65
9969;BME280;5025;48.890;9.278;2023-05-14T10:20:43;98628.22;;;16.16;69.71
9969;BME280;5025;48.890;9.278;2023-05-14T10:23:10;98633.13;;;16.19;69.82
9969;BME280;5025;48.890;9.278;2023-05-14T10:25:37;98634.78;;;16.25;69.72
9969;BME280;5025;48.890;9.278;2023-05-14T10:28:04;98625.53;;;16.31;69.85
9969;BME280;5025;48.890;9.278;2023-05-14T10:30:30;98625.78;;;16.40;69.85
9969;BME280;5025;48.890;9.278;2023-05-14T10:33:06;98623.63;;;16.47;69.76
9969;BME280;5025;48.890;9.278;2023-05-14T10:35:49;98623.09;;;16.56;69.62
9969;BME280;5025;48.890;9.278;2023-05-14T10:38:15;98619.81;;;16.59;69.48
9969;BME280;5025;48.890;9.278;2023-05-14T10:40:40;98618.75;;;16.55;69.31
9969;BME280;5025;48.890;9.278;2023-05-14T10:43:06;98613.28;;;16.60;69.11
9969;BME280;5025;48.890;9.278;2023-05-14T10:45:32;98614.66;;;16.62;68.91
9969;BME280;5025;48.890;9.278;2023-05-14T10:47:58;98611.66;;;16.69;68.89
9969;BME280;5025;48.890;9.278;2023-05-14T10:50:25;98608.38;;;16.72;68.31
9969;BME280;5025;48.890;9.278;2023-05-14T10:52:50;98603.47;;;16.79;68.34
9969;BME280;5025;48.890;9.278;2023-05-14T10:55:16;98608.09;;;16.84;68.08
9969;BME280;5025;48.890;9.278;2023-05-14T10:57:44;98599.66;;;16.85;67.70
9969;BME280;5025;48.890;9.278;2023-05-14T11:00:10;98602.38;;;16.91;67.72
9969;BME280;5025;48.890;9.278;2023-05-14T11:02:38;98604.56;;;16.94;67.21
9969;BME280;5025;48.890;9.278;2023-05-14T11:05:05;98597.19;;;16.99;67.07
9969;BME280;5025;48.890;9.278;2023-05-14T11:07:37;98593.66;;;17.04;66.95
9969;BME280;5025;48.890;9.278;2023-05-14T11:10:03;98599.34;;;17.08;66.86
9969;BME280;5025;48.890;9.278;2023-05-14T11:12:29;98591.16;;;17.13;66.75
9969;BME280;5025;48.890;9.278;2023-05-14T11:14:58;98588.41;;;17.18;66.63
9969;BME280;5025;48.890;9.278;2023-05-14T11:17:25;98593.84;;;17.28;66.89
9969;BME280;5025;48.890;9.278;2023-05-14T11:19:51;98582.63;;;17.40;66.22
9969;BME280;5025;48.890;9.278;2023-05-14T11:22:16;98583.41;;;17.51;66.25
9969;BME280;5025;48.890;9.278;2023-05-14T11:24:41;98581.47;;;17.51;65.86
9969;BME280;5025;48.890;9.278;2023-05-14T11:27:07;98577.38;;;17.54;65.61
9969;BME280;5025;48.890;9.278;2023-05-14T11:29:36;98582.84;;;17.54;65.59
9969;BME280;5025;48.890;9.278;2023-05-14T11:32:04;98576.81;;;17.52;65.51
9969;BME280;5025;48.890;9.278;2023-05-14T11:34:29;98578.22;;;17.49;65.63
9969;BME280;5025;48.890;9.278;2023-05-14T11:36:55;98575.78;;;17.48;65.42
9969;BME280;5025;48.890;9.278;2023-05-14T11:39:20;98577.38;;;17.49;65.23
9969;BME280;5025;48.890;9.278;2023-05-14T11:41:45;98573.31;;;17.46;65.17
9969;BME280;5025;48.890;9.278;2023-05-14T11:44:11;98575.22;;;17.46;65.28
9969;BME280;5025;48.890;9.278;2023-05-14T11:46:36;98572.22;;;17.42;65.16
9969;BME280;5025;48.890;9.278;2023-05-14T11:49:05;98574.97;;;17.42;65.19
9969;BME280;5025;48.890;9.278;2023-05-14T11:51:30;98565.13;;;17.41;64.96
9969;BME280;5025;48.890;9.278;2023-05-14T11:53:56;98567.06;;;17.41;64.78
9969;BME280;5025;48.890;9.278;2023-05-14T11:56:22;98565.97;;;17.42;64.68
9969;BME280;5025;48.890;9.278;2023-05-14T11:58:48;98568.69;;;17.42;64.79
9969;BME280;5025;48.890;9.278;2023-05-14T12:01:13;98563.50;;;17.40;64.78
9969;BME280;5025;48.890;9.278;2023-05-14T12:03:38;98565.13;;;17.41;65.12
9969;BME280;5025;48.890;9.278;2023-05-14T12:06:05;98564.31;;;17.41;65.43
9969;BME280;5025;48.890;9.278;2023-05-14T12:08:33;98561.06;;;17.33;65.60
9969;BME280;5025;48.890;9.278;2023-05-14T12:10:59;98557.81;;;17.31;65.88
9969;BME280;5025;48.890;9.278;2023-05-14T12:13:26;98547.41;;;17.33;66.04
9969;BME280;5025;48.890;9.278;2023-05-14T12:15:57;98547.34;;;17.49;66.03
9969;BME280;5025;48.890;9.278;2023-05-14T12:18:32;98542.41;;;17.56;65.89
9969;BME280;5025;48.890;9.278;2023-05-14T12:21:02;98546.72;;;17.67;65.62
9969;BME280;5025;48.890;9.278;2023-05-14T12:23:29;98536.88;;;17.71;65.35
9969;BME280;5025;48.890;9.278;2023-05-14T12:25:54;98546.09;;;17.81;65.30
9969;BME280;5025;48.890;9.278;2023-05-14T12:28:21;98532.72;;;17.89;65.02
9969;BME280;5025;48.890;9.278;2023-05-14T12:30:47;98534.56;;;17.99;64.70
9969;BME280;5025;48.890;9.278;2023-05-14T12:33:19;98531.25;;;18.02;64.38
9969;BME280;5025;48.890;9.278;2023-05-14T12:35:46;98525.44;;;18.09;64.17
9969;BME280;5025;48.890;9.278;2023-05-14T12:38:12;98519.34;;;18.22;63.76
9969;BME280;5025;48.890;9.278;2023-05-14T12:40:37;98519.84;;;18.30;62.63
9969;BME280;5025;48.890;9.278;2023-05-14T12:43:03;98514.38;;;18.30;62.43
9969;BME280;5025;48.890;9.278;2023-05-14T12:45:29;98517.34;;;18.33;62.11
9969;BME280;5025;48.890;9.278;2023-05-14T12:47:54;98511.09;;;18.27;61.68
9969;BME280;5025;48.890;9.278;2023-05-14T12:50:19;98514.69;;;18.23;61.58
9969;BME280;5025;48.890;9.278;2023-05-14T12:52:45;98507.91;;;18.15;61.06
9969;BME280;5025;48.890;9.278;2023-05-14T12:55:10;98506.59;;;18.13;61.54
9969;BME280;5025;48.890;9.278;2023-05-14T12:57:36;98508.53;;;18.07;61.65
9969;BME280;5025;48.890;9.278;2023-05-14T13:00:03;98508.53;;;18.07;61.45
9969;BME280;5025;48.890;9.278;2023-05-14T13:02:30;98506.88;;;18.11;61.40
9969;BME280;5025;48.890;9.278;2023-05-14T13:04:56;98496.63;;;18.27;61.45
9969;BME280;5025;48.890;9.278;2023-05-14T13:07:21;98493.69;;;18.48;60.96
9969;BME280;5025;48.890;9.278;2023-05-14T13:09:46;98490.31;;;18.61;60.94
9969;BME280;5025;48.890;9.278;2023-05-14T13:12:12;98489.72;;;18.64;60.58
9969;BME280;5025;48.890;9.278;2023-05-14T13:14:37;98487.56;;;18.61;60.34
9969;BME280;5025;48.890;9.278;2023-05-14T13:17:03;98481.25;;;18.60;59.97
9969;BME280;5025;48.890;9.278;2023-05-14T13:19:29;98478.00;;;18.58;59.91
9969;BME280;5025;48.890;9.278;2023-05-14T13:21:54;98477.78;;;18.55;59.71
9969;BME280;5025;48.890;9.278;2023-05-14T13:24:19;98467.41;;;18.52;59.20